Culver City, California
Current Conditions -  °F | °C
As of 4:51 PM on Saturday 25 Oct 2014 (Local Time) from KSMO Reporting Station
Clear Clear  
Wind Chill: 72°   Ceiling: Unl
Heat Index: 72°   Visibility: 10mi
Dew Point: 60°   Wind: 6mph
Humidity: 66%   Direction: 250°WSW
Pressure: 29.99"   Gusts: NA
Location:  34.02°N, 118.39°W
Report Text: KSMO 252351Z 25005KT 10SM CLR 22/16 A2999 RMK AO2 SLP154 T02220156 10244 20222 58012 $
Loading
Personal Weather Stations






























Interactive Weather Map
Tropical Storm Tracking
New forecast layout! Learn more

10-Day Weather Forecast

Advertisements
Track Severe Weather on mobile